Time;durP1;ratioP1;P1;durP2;ratioP2;P2;SDS_P1;SDS_P2;PMS_P1;PMS_P2;Temp;Humidity;BMP_temperature;BMP_pressure;BME280_temperature;BME280_humidity;BME280_pressure;Samples;Min_cycle;Max_cycle;Signal;HPM_P1;HPM_P2
2023/10/30 00:01:23;;;;;;;0.28;0.28;;;;;;;9.52;100.00;99690.25;5096663;28;20027;-52
2023/10/30 00:03:49;;;;;;;0.20;0.20;;;;;;;9.50;100.00;99694.50;5096229;28;20189;-52
2023/10/30 00:06:15;;;;;;;0.30;0.30;;;;;;;9.47;100.00;99702.19;5095847;28;20035;-50
2023/10/30 00:08:40;;;;;;;0.20;0.20;;;;;;;9.49;100.00;99697.91;5096116;28;20024;-52
2023/10/30 00:11:05;;;;;;;0.30;0.30;;;;;;;9.49;100.00;99709.09;5096197;28;20028;-51
2023/10/30 00:13:31;;;;;;;0.20;0.20;;;;;;;9.49;100.00;99711.66;5095392;28;20437;-52
2023/10/30 00:15:56;;;;;;;0.30;0.30;;;;;;;9.48;100.00;99715.06;5096094;28;20039;-52
2023/10/30 00:18:21;;;;;;;0.20;0.20;;;;;;;9.45;100.00;99714.16;5096293;28;20424;-52
2023/10/30 00:20:47;;;;;;;0.20;0.20;;;;;;;9.48;100.00;99720.22;5095167;28;20477;-52
2023/10/30 00:23:12;;;;;;;0.20;0.20;;;;;;;9.44;100.00;99726.16;5096153;28;20030;-52
2023/10/30 00:25:38;;;;;;;0.30;0.30;;;;;;;9.51;100.00;99727.09;5095699;28;20024;-51
2023/10/30 00:28:03;;;;;;;0.20;0.20;;;;;;;9.48;100.00;99735.63;5095115;28;20414;-52
2023/10/30 00:30:29;;;;;;;0.20;0.20;;;;;;;9.53;100.00;99741.72;5095759;28;20043;-51
2023/10/30 00:32:54;;;;;;;0.20;0.20;;;;;;;9.48;100.00;99751.06;5095648;28;20114;-52
2023/10/30 00:35:20;;;;;;;0.20;0.20;;;;;;;9.49;100.00;99751.94;5095025;28;20089;-51
2023/10/30 00:37:45;;;;;;;0.20;0.20;;;;;;;9.50;100.00;99749.41;5095403;28;20024;-52
2023/10/30 00:40:11;;;;;;;0.30;0.30;;;;;;;9.44;100.00;99744.16;5094972;28;20383;-51
2023/10/30 00:42:37;;;;;;;0.30;0.30;;;;;;;9.42;100.00;99752.69;5095182;28;20048;-51
2023/10/30 00:45:04;;;;;;;0.20;0.20;;;;;;;9.43;100.00;99752.69;5095504;28;20443;-51
2023/10/30 00:47:30;;;;;;;0.20;0.20;;;;;;;9.41;100.00;99759.50;5094993;28;20111;-52
2023/10/30 00:49:55;;;;;;;0.20;0.20;;;;;;;9.40;100.00;99760.38;5095208;28;20111;-52
2023/10/30 00:52:21;;;;;;;0.20;0.20;;;;;;;9.42;100.00;99761.25;5095589;28;20100;-52
2023/10/30 00:54:46;;;;;;;0.30;0.30;;;;;;;9.42;100.00;99766.41;5094284;28;20464;-51
2023/10/30 00:57:12;;;;;;;0.30;0.30;;;;;;;9.47;100.00;99769.91;5095357;28;20028;-53
2023/10/30 00:59:37;;;;;;;0.30;0.30;;;;;;;9.42;100.00;99775.81;5094985;28;20085;-52
2023/10/30 01:02:03;;;;;;;0.30;0.30;;;;;;;9.46;100.00;99778.47;5094440;28;20032;-52
2023/10/30 01:04:28;;;;;;;0.30;0.30;;;;;;;9.48;100.00;99789.66;5095385;28;20084;-51
2023/10/30 01:06:54;;;;;;;0.20;0.20;;;;;;;9.48;100.00;99787.09;5094904;28;20055;-52
2023/10/30 01:09:19;;;;;;;0.20;0.20;;;;;;;9.49;100.00;99793.97;5094329;28;20137;-51
2023/10/30 01:11:44;;;;;;;0.20;0.20;;;;;;;9.51;100.00;99796.56;5094902;28;20047;-51
2023/10/30 01:14:10;;;;;;;0.20;0.20;;;;;;;9.50;100.00;99793.13;5095036;28;20016;-52
2023/10/30 01:16:36;;;;;;;0.20;0.20;;;;;;;9.49;100.00;99799.09;5093940;28;20021;-52
2023/10/30 01:19:01;;;;;;;0.20;0.20;;;;;;;9.51;100.00;99802.56;5094843;28;20060;-52
2023/10/30 01:21:26;;;;;;;0.20;0.20;;;;;;;9.49;100.00;99809.41;5094968;28;20059;-52
2023/10/30 01:23:52;;;;;;;0.20;0.20;;;;;;;9.50;100.00;99811.13;5093853;28;20028;-51
2023/10/30 01:26:17;;;;;;;0.20;0.20;;;;;;;9.50;100.00;99808.56;5094822;28;20016;-51
2023/10/30 01:28:42;;;;;;;0.20;0.20;;;;;;;9.47;100.00;99811.06;5094795;28;20028;-50
2023/10/30 01:31:08;;;;;;;0.20;0.20;;;;;;;9.49;100.00;99804.25;5094112;28;20020;-52
2023/10/30 01:33:33;;;;;;;0.20;0.20;;;;;;;9.50;100.00;99806.00;5094788;28;20353;-52
2023/10/30 01:35:58;;;;;;;0.30;0.30;;;;;;;9.52;100.00;99799.16;5094456;28;20077;-51
2023/10/30 01:38:24;;;;;;;0.20;0.20;;;;;;;9.53;100.00;99789.75;5093911;28;20028;-52
2023/10/30 01:40:50;;;;;;;0.30;0.30;;;;;;;9.55;100.00;99788.03;5094139;28;20399;-52
2023/10/30 01:43:16;;;;;;;0.30;0.30;;;;;;;9.56;100.00;99788.06;5094282;28;20408;-51
2023/10/30 01:45:41;;;;;;;0.20;0.20;;;;;;;9.59;100.00;99794.97;5093556;28;20020;-51
2023/10/30 01:48:07;;;;;;;0.20;0.20;;;;;;;9.59;100.00;99789.81;5094502;28;20416;-51
2023/10/30 01:50:33;;;;;;;0.20;0.20;;;;;;;9.59;100.00;99799.25;5093558;28;20036;-51
2023/10/30 01:52:58;;;;;;;0.20;0.20;;;;;;;9.60;100.00;99803.56;5093924;28;20542;-51
2023/10/30 01:55:24;;;;;;;0.20;0.20;;;;;;;9.58;100.00;99810.38;5094186;28;20024;-52
2023/10/30 01:57:50;;;;;;;0.20;0.20;;;;;;;9.57;100.00;99809.53;5092563;28;20078;-51
2023/10/30 02:00:16;;;;;;;0.30;0.30;;;;;;;9.58;100.00;99800.09;5094339;28;20028;-51
2023/10/30 02:02:42;;;;;;;0.20;0.20;;;;;;;9.55;100.00;99803.47;5094068;28;20389;-51
2023/10/30 02:05:08;;;;;;;0.20;0.20;;;;;;;9.56;100.00;99816.34;5093429;28;20097;-52
2023/10/30 02:07:35;;;;;;;0.20;0.20;;;;;;;9.62;100.00;99812.16;5094091;28;20097;-52
2023/10/30 02:10:02;;;;;;;0.30;0.30;;;;;;;9.64;100.00;99806.19;5093941;28;20024;-51
2023/10/30 02:12:28;;;;;;;0.20;0.20;;;;;;;9.65;100.00;99804.50;5093022;28;20459;-52
2023/10/30 02:14:53;;;;;;;0.20;0.20;;;;;;;9.67;100.00;99813.97;5093723;28;20545;-50
2023/10/30 02:17:18;;;;;;;0.20;0.20;;;;;;;9.62;100.00;99818.19;5093972;28;20028;-51
2023/10/30 02:19:44;;;;;;;0.20;0.20;;;;;;;9.63;100.00;99813.91;5092828;28;20032;-52
2023/10/30 02:22:09;;;;;;;0.20;0.20;;;;;;;9.63;100.00;99811.31;5093853;28;20065;-52
2023/10/30 02:24:34;;;;;;;0.25;0.25;;;;;;;9.64;100.00;99819.06;5093380;28;20024;-52
2023/10/30 02:27:01;;;;;;;0.20;0.20;;;;;;;9.63;100.00;99817.34;5092821;28;20051;-51
2023/10/30 02:29:26;;;;;;;0.20;0.20;;;;;;;9.70;100.00;99814.03;5093708;28;20032;-51
2023/10/30 02:31:53;;;;;;;0.28;0.28;;;;;;;9.70;100.00;99808.88;5093441;28;20384;-50
2023/10/30 02:34:18;;;;;;;0.20;0.20;;;;;;;9.64;100.00;99802.78;5092865;28;20106;-52
2023/10/30 02:36:44;;;;;;;0.20;0.20;;;;;;;9.66;100.00;99806.25;5093306;28;20063;-51
2023/10/30 02:39:09;;;;;;;0.20;0.20;;;;;;;9.64;100.00;99800.19;5093564;28;20036;-52
2023/10/30 02:41:34;;;;;;;0.30;0.30;;;;;;;9.66;100.00;99790.81;5092163;28;20072;-51
2023/10/30 02:44:00;;;;;;;0.20;0.20;;;;;;;9.66;100.00;99806.25;5093775;28;20032;-52
2023/10/30 02:46:26;;;;;;;0.28;0.28;;;;;;;9.69;100.00;99790.84;5093515;28;20027;-52
2023/10/30 02:48:51;;;;;;;0.20;0.20;;;;;;;9.68;100.00;99789.09;5092210;28;20031;-52
2023/10/30 02:51:17;;;;;;;0.20;0.20;;;;;;;9.67;100.00;99793.41;5093499;28;20103;-51
2023/10/30 02:53:43;;;;;;;0.20;0.20;;;;;;;9.69;100.00;99796.00;5092679;28;20028;-50
2023/10/30 02:56:08;;;;;;;0.20;0.20;;;;;;;9.68;100.00;99794.25;5092801;28;20460;-51
2023/10/30 02:58:34;;;;;;;0.15;0.15;;;;;;;9.70;100.00;99797.72;5093304;28;20028;-51
2023/10/30 03:01:00;;;;;;;0.30;0.30;;;;;;;9.71;100.00;99795.19;5092165;28;20127;-51
2023/10/30 03:03:25;;;;;;;0.20;0.20;;;;;;;9.72;100.00;99799.50;5093210;28;20016;-52
2023/10/30 03:05:51;;;;;;;0.20;0.20;;;;;;;9.68;100.00;99794.25;5092742;28;20024;-52
2023/10/30 03:08:16;;;;;;;0.20;0.20;;;;;;;9.69;100.00;99796.00;5092135;28;20028;-52
2023/10/30 03:10:41;;;;;;;0.20;0.20;;;;;;;9.66;100.00;99796.81;5091763;28;20034;-52
2023/10/30 03:13:07;;;;;;;0.28;0.28;;;;;;;9.67;100.00;99800.22;5093220;28;20028;-51
2023/10/30 03:15:35;;;;;;;0.25;0.25;;;;;;;9.66;100.00;99793.38;5092280;28;20494;-51
2023/10/30 03:18:01;;;;;;;0.20;0.20;;;;;;;9.67;100.00;99805.38;5092811;28;20430;-52
2023/10/30 03:20:27;;;;;;;0.20;0.20;;;;;;;9.63;100.00;99803.59;5092946;28;20024;-52
2023/10/30 03:22:52;;;;;;;0.20;0.20;;;;;;;9.63;100.00;99812.22;5091845;28;20023;-52
2023/10/30 03:25:17;;;;;;;0.30;0.30;;;;;;;9.63;100.00;99816.47;5092850;28;20023;-52
2023/10/30 03:27:42;;;;;;;0.30;0.30;;;;;;;9.65;100.00;99819.94;5092484;28;20020;-51
2023/10/30 03:30:08;;;;;;;0.20;0.20;;;;;;;9.63;100.00;99822.50;5092077;28;20032;-52
2023/10/30 03:32:33;;;;;;;0.20;0.20;;;;;;;9.60;100.00;99825.00;5103533;28;20462;-52
2023/10/30 03:34:59;;;;;;;0.20;0.20;;;;;;;9.58;100.00;99816.41;5112874;28;20400;-52
2023/10/30 03:37:25;;;;;;;0.20;0.20;;;;;;;9.53;100.00;99813.75;5112219;28;20031;-52
2023/10/30 03:39:50;;;;;;;0.20;0.20;;;;;;;9.51;100.00;99804.28;5112757;28;20378;-51
2023/10/30 03:42:15;;;;;;;0.28;0.28;;;;;;;9.49;100.00;99811.97;5112962;28;20036;-52
2023/10/30 03:44:41;;;;;;;0.20;0.20;;;;;;;9.50;100.00;99815.38;5112059;28;20030;-51
2023/10/30 03:47:06;;;;;;;0.15;0.15;;;;;;;9.44;100.00;99808.44;5113157;28;20027;-52
2023/10/30 03:49:31;;;;;;;0.20;0.20;;;;;;;9.47;100.00;99810.22;5112982;28;20024;-51
2023/10/30 03:51:56;;;;;;;0.20;0.20;;;;;;;9.40;100.00;99809.25;5111887;28;20034;-52
2023/10/30 03:54:22;;;;;;;0.20;0.20;;;;;;;9.32;100.00;99805.66;5112855;28;20106;-52
2023/10/30 03:56:48;;;;;;;0.30;0.30;;;;;;;9.35;100.00;99810.88;5112478;28;20024;-51
2023/10/30 03:59:15;;;;;;;0.20;0.20;;;;;;;9.28;100.00;99814.16;5112288;28;20111;-51
2023/10/30 04:01:40;;;;;;;0.20;0.20;;;;;;;9.26;100.00;99815.81;5112750;28;20024;-51
2023/10/30 04:04:06;;;;;;;0.20;0.20;;;;;;;9.25;100.00;99824.41;5112210;28;20112;-50
2023/10/30 04:06:32;;;;;;;0.20;0.20;;;;;;;9.20;100.00;99822.56;5112800;28;20024;-52
2023/10/30 04:08:57;;;;;;;0.20;0.20;;;;;;;9.15;100.00;99810.50;5112331;28;20077;-52
2023/10/30 04:11:23;;;;;;;0.30;0.30;;;;;;;9.15;100.00;99811.34;5112140;28;20051;-52
2023/10/30 04:13:48;;;;;;;0.28;0.28;;;;;;;9.16;100.00;99820.78;5112707;28;20016;-51
2023/10/30 04:16:15;;;;;;;0.20;0.20;;;;;;;9.14;100.00;99809.63;5112685;28;20032;-52
2023/10/30 04:18:41;;;;;;;0.30;0.30;;;;;;;9.15;100.00;99813.06;5111704;28;20091;-51
2023/10/30 04:21:06;;;;;;;0.20;0.20;;;;;;;9.16;100.00;99807.94;5113132;28;20534;-51
2023/10/30 04:23:31;;;;;;;0.30;0.30;;;;;;;9.16;100.00;99810.50;5116360;28;20024;-52
2023/10/30 04:25:57;;;;;;;0.20;0.20;;;;;;;9.18;100.00;99806.28;5115169;28;20038;-52
2023/10/30 04:28:23;;;;;;;0.20;0.20;;;;;;;9.20;100.00;99807.16;5116568;28;20408;-52
2023/10/30 04:30:48;;;;;;;0.20;0.20;;;;;;;9.17;100.00;99812.25;5116039;28;20032;-52
2023/10/30 04:33:13;;;;;;;0.20;0.20;;;;;;;9.16;100.00;99813.09;5115568;28;20088;-51
2023/10/30 04:35:39;;;;;;;0.20;0.20;;;;;;;9.19;100.00;99819.97;5116002;28;20047;-52
2023/10/30 04:38:04;;;;;;;0.20;0.20;;;;;;;9.15;100.00;99813.91;5116199;28;20020;-51
2023/10/30 04:40:30;;;;;;;0.20;0.20;;;;;;;9.15;100.00;99819.06;5115301;28;20035;-52
2023/10/30 04:42:55;;;;;;;0.20;0.20;;;;;;;9.14;100.00;99822.47;5115603;28;20425;-52
2023/10/30 04:45:20;;;;;;;0.30;0.30;;;;;;;9.15;100.00;99824.19;5116197;28;20031;-51
2023/10/30 04:47:46;;;;;;;0.20;0.20;;;;;;;9.19;100.00;99826.00;5114876;28;20027;-51
2023/10/30 04:50:11;;;;;;;0.20;0.20;;;;;;;9.16;100.00;99828.50;5115915;28;20463;-52
2023/10/30 04:52:37;;;;;;;0.28;0.28;;;;;;;9.18;100.00;99820.81;5115644;28;20535;-52
2023/10/30 04:55:02;;;;;;;0.30;0.30;;;;;;;9.14;100.00;99824.16;5114935;28;20020;-50
2023/10/30 04:57:28;;;;;;;0.20;0.20;;;;;;;9.12;100.00;99823.28;5116009;28;20027;-51
2023/10/30 04:59:53;;;;;;;0.20;0.20;;;;;;;9.11;100.00;99821.56;5115670;28;20397;-52
2023/10/30 05:02:18;;;;;;;0.30;0.30;;;;;;;9.11;100.00;99822.41;5114854;28;20379;-52
2023/10/30 05:04:44;;;;;;;0.20;0.20;;;;;;;9.08;100.00;99809.50;5115388;28;20027;-50
2023/10/30 05:07:09;;;;;;;0.20;0.20;;;;;;;9.10;100.00;99805.25;5115591;28;20027;-51
2023/10/30 05:09:36;;;;;;;0.20;0.20;;;;;;;9.04;100.00;99805.16;5114884;28;20111;-52
2023/10/30 05:12:01;;;;;;;0.28;0.28;;;;;;;9.01;100.00;99799.94;5115690;28;20030;-52
2023/10/30 05:14:26;;;;;;;0.20;0.20;;;;;;;9.04;100.00;99807.72;5115030;28;20024;-51
2023/10/30 05:16:52;;;;;;;0.20;0.20;;;;;;;8.99;100.00;99811.91;5115057;28;20024;-52
2023/10/30 05:19:17;;;;;;;0.25;0.25;;;;;;;9.00;100.00;99813.63;5115377;28;20024;-52
2023/10/30 05:21:43;;;;;;;0.30;0.30;;;;;;;8.94;100.00;99816.94;5114268;28;20534;-52
2023/10/30 05:24:08;;;;;;;0.20;0.20;;;;;;;8.93;100.00;99816.94;5115209;28;20019;-52
2023/10/30 05:26:33;;;;;;;0.20;0.20;;;;;;;8.89;100.00;99806.56;5115431;28;20023;-52
2023/10/30 05:28:58;;;;;;;0.20;0.20;;;;;;;8.90;100.00;99808.31;5114103;28;20024;-52
2023/10/30 05:31:24;;;;;;;0.30;0.30;;;;;;;8.89;100.00;99809.13;5115347;28;20394;-51
2023/10/30 05:33:49;;;;;;;0.20;0.20;;;;;;;8.90;100.00;99799.75;5114014;28;20051;-52
2023/10/30 05:36:14;;;;;;;0.20;0.20;;;;;;;8.91;100.00;99793.78;5114422;28;20084;-52
2023/10/30 05:38:40;;;;;;;0.30;0.30;;;;;;;8.87;100.00;99789.38;5114533;28;20379;-52
2023/10/30 05:41:05;;;;;;;0.20;0.20;;;;;;;8.86;100.00;99785.13;5115091;28;20059;-52
2023/10/30 05:43:30;;;;;;;0.20;0.20;;;;;;;8.87;100.00;99797.09;5114095;28;20394;-51
2023/10/30 05:45:56;;;;;;;0.22;0.22;;;;;;;8.85;100.00;99802.22;5114543;28;20375;-51
2023/10/30 05:48:21;;;;;;;0.20;0.20;;;;;;;8.83;100.00;99803.91;5114857;28;20040;-51
2023/10/30 05:50:46;;;;;;;0.30;0.30;;;;;;;8.86;100.00;99809.09;5113614;28;20031;-52
2023/10/30 05:53:12;;;;;;;0.20;0.20;;;;;;;8.86;100.00;99797.97;5114626;28;20027;-51
2023/10/30 05:55:37;;;;;;;0.22;0.22;;;;;;;8.85;100.00;99803.94;5114340;28;20020;-51
2023/10/30 05:58:03;;;;;;;0.20;0.20;;;;;;;8.82;100.00;99799.59;5113732;28;20391;-52
2023/10/30 06:00:29;;;;;;;0.20;0.20;;;;;;;8.77;100.00;99785.78;5114405;28;20455;-52
2023/10/30 06:02:55;;;;;;;0.20;0.20;;;;;;;8.77;100.00;99785.78;5114179;28;20047;-51
2023/10/30 06:05:21;;;;;;;0.30;0.30;;;;;;;8.80;100.00;99795.25;5113599;28;20104;-52
2023/10/30 06:07:47;;;;;;;0.20;0.20;;;;;;;8.75;100.00;99794.31;5114054;28;20016;-51
2023/10/30 06:10:13;;;;;;;0.30;0.30;;;;;;;8.75;100.00;99797.72;5114460;28;20023;-51
2023/10/30 06:12:39;;;;;;;0.20;0.20;;;;;;;8.74;100.00;99798.59;5113398;28;20345;-51
2023/10/30 06:15:06;;;;;;;0.20;0.20;;;;;;;8.72;100.00;99802.81;5114275;28;20039;-51
2023/10/30 06:17:31;;;;;;;0.20;0.20;;;;;;;8.70;100.00;99802.78;5114239;28;20027;-51
2023/10/30 06:19:56;;;;;;;0.30;0.30;;;;;;;8.65;100.00;99803.50;5113033;28;20111;-51
2023/10/30 06:22:22;;;;;;;0.20;0.20;;;;;;;8.56;100.00;99802.50;5114098;28;20024;-51
2023/10/30 06:24:47;;;;;;;0.20;0.20;;;;;;;8.62;100.00;99811.16;5113060;28;20090;-51
2023/10/30 06:27:12;;;;;;;0.20;0.20;;;;;;;8.58;100.00;99815.38;5114392;28;20386;-51
2023/10/30 06:29:38;;;;;;;0.20;0.20;;;;;;;8.56;100.00;99825.63;5113491;28;20429;-53
2023/10/30 06:32:03;;;;;;;0.20;0.20;;;;;;;8.53;100.00;99833.25;5113311;28;20031;-51
2023/10/30 06:34:29;;;;;;;0.22;0.22;;;;;;;8.51;100.00;99834.91;5114017;28;20020;-52
2023/10/30 06:36:54;;;;;;;0.25;0.25;;;;;;;8.54;100.00;99837.53;5113542;28;20172;-52
2023/10/30 06:39:20;;;;;;;0.28;0.28;;;;;;;8.47;100.00;99838.25;5113050;28;20462;-53
2023/10/30 06:41:48;;;;;;;0.20;0.20;;;;;;;8.49;100.00;99841.72;5113366;28;20052;-52
2023/10/30 06:44:15;;;;;;;0.20;0.20;;;;;;;8.51;100.00;99849.47;5113688;28;20047;-52
2023/10/30 06:46:40;;;;;;;0.20;0.20;;;;;;;8.54;100.00;99852.94;5112620;28;20562;-51
2023/10/30 06:49:05;;;;;;;0.30;0.30;;;;;;;8.55;100.00;99849.56;5113619;28;20153;-52
2023/10/30 06:51:30;;;;;;;0.30;0.30;;;;;;;8.54;100.00;99852.94;5113532;28;20020;-52
2023/10/30 06:53:56;;;;;;;0.30;0.30;;;;;;;8.59;100.00;99847.06;5112691;28;20023;-51
2023/10/30 06:56:21;;;;;;;0.30;0.30;;;;;;;8.62;100.00;99852.25;5113576;28;20367;-51
2023/10/30 06:58:46;;;;;;;0.30;0.30;;;;;;;8.66;100.00;99848.91;5113371;28;20027;-52
2023/10/30 07:01:11;;;;;;;0.20;0.20;;;;;;;8.71;100.00;99853.34;5112796;28;20023;-52
2023/10/30 07:03:37;;;;;;;0.28;0.28;;;;;;;8.73;100.00;99855.94;5113217;28;20360;-51
2023/10/30 07:06:02;;;;;;;0.30;0.30;;;;;;;8.72;100.00;99854.19;5113354;28;20051;-51
2023/10/30 07:08:28;;;;;;;0.20;0.20;;;;;;;8.81;100.00;99850.97;5112442;28;20535;-50
2023/10/30 07:10:53;;;;;;;0.30;0.30;;;;;;;8.80;100.00;99857.78;5113118;28;20080;-51
2023/10/30 07:13:19;;;;;;;0.20;0.20;;;;;;;8.83;100.00;99855.28;5113542;28;20413;-52
2023/10/30 07:15:44;;;;;;;0.20;0.20;;;;;;;8.84;100.00;99857.00;5112242;28;20016;-52
2023/10/30 07:18:09;;;;;;;0.30;0.30;;;;;;;8.84;100.00;99864.72;5113247;28;20051;-51
2023/10/30 07:20:34;;;;;;;0.30;0.30;;;;;;;8.89;100.00;99857.97;5112924;28;20448;-51
2023/10/30 07:23:00;;;;;;;0.20;0.20;;;;;;;8.90;100.00;99859.69;5112162;28;20031;-52
2023/10/30 07:25:25;;;;;;;0.30;0.30;;;;;;;8.90;100.00;99862.28;5113324;28;20043;-52
2023/10/30 07:27:50;;;;;;;0.20;0.20;;;;;;;8.93;100.00;99865.75;5112868;28;20058;-51
2023/10/30 07:30:16;;;;;;;0.30;0.30;;;;;;;8.93;100.00;99860.63;5112395;28;20085;-52
2023/10/30 07:32:43;;;;;;;0.25;0.25;;;;;;;8.92;100.00;99866.56;5112774;28;20015;-52
2023/10/30 07:35:09;;;;;;;0.20;0.20;;;;;;;8.95;100.00;99876.91;5112792;28;20027;-51
2023/10/30 07:37:35;;;;;;;0.20;0.20;;;;;;;8.95;100.00;99876.91;5112645;28;20016;-52
2023/10/30 07:40:01;;;;;;;0.22;0.22;;;;;;;8.99;100.00;99878.72;5112949;28;20582;-52
2023/10/30 07:42:26;;;;;;;0.30;0.30;;;;;;;9.05;100.00;99883.97;5111970;28;20065;-52
2023/10/30 07:44:51;;;;;;;0.20;0.20;;;;;;;9.10;100.00;99889.22;5112845;28;20023;-51
2023/10/30 07:47:16;;;;;;;0.30;0.30;;;;;;;9.18;100.00;99900.50;5113043;28;20102;-51
2023/10/30 07:49:42;;;;;;;0.20;0.20;;;;;;;9.21;100.00;99890.31;5111671;28;20048;-50
2023/10/30 07:52:07;;;;;;;0.20;0.20;;;;;;;9.22;100.00;99882.63;5112842;28;20049;-51
2023/10/30 07:54:32;;;;;;;0.30;0.30;;;;;;;9.22;100.00;99887.75;5113042;28;20018;-51
2023/10/30 07:56:58;;;;;;;0.20;0.20;;;;;;;9.29;100.00;99883.59;5114039;28;20032;-51
2023/10/30 07:59:23;;;;;;;0.20;0.20;;;;;;;9.32;100.00;99880.22;5117081;28;20111;-51
2023/10/30 08:01:50;;;;;;;0.20;0.20;;;;;;;9.36;100.00;99884.56;5116745;28;20427;-51
2023/10/30 08:04:15;;;;;;;0.20;0.20;;;;;;;9.43;100.00;99891.56;5115975;28;20543;-51
2023/10/30 08:06:41;;;;;;;0.20;0.20;;;;;;;9.49;100.00;99890.81;5116395;28;20076;-51
2023/10/30 08:09:08;;;;;;;0.20;0.20;;;;;;;9.56;100.00;99883.25;5116593;28;20087;-51
2023/10/30 08:11:34;;;;;;;0.20;0.20;;;;;;;9.65;100.00;99887.69;5116056;28;20103;-50
2023/10/30 08:13:59;;;;;;;0.20;0.20;;;;;;;9.72;100.00;99894.69;5116684;28;20486;-51
2023/10/30 08:16:25;;;;;;;0.20;0.20;;;;;;;9.80;100.00;99889.69;5116633;28;20035;-51
2023/10/30 08:18:50;;;;;;;0.20;0.20;;;;;;;9.91;100.00;99896.72;5115428;28;20094;-51
2023/10/30 08:21:16;;;;;;;0.30;0.30;;;;;;;10.01;100.00;99896.03;5116414;28;20024;-51
2023/10/30 08:23:41;;;;;;;0.10;0.10;;;;;;;10.09;100.00;99891.84;5116222;28;20024;-52
2023/10/30 08:26:06;;;;;;;0.28;0.28;;;;;;;10.17;100.00;99891.97;5115686;28;20027;-52
2023/10/30 08:28:32;;;;;;;0.20;0.20;;;;;;;10.26;100.00;99897.28;5116248;28;20024;-50
2023/10/30 08:30:58;;;;;;;0.20;0.20;;;;;;;10.35;100.00;99896.56;5115779;28;20027;-52
2023/10/30 08:33:23;;;;;;;0.22;0.22;;;;;;;10.45;100.00;99902.75;5115440;28;20515;-51
2023/10/30 08:35:48;;;;;;;0.20;0.20;;;;;;;10.51;100.00;99898.56;5115749;28;20045;-51
2023/10/30 08:38:14;;;;;;;0.20;0.20;;;;;;;10.57;100.00;99907.22;5115249;28;20032;-52
2023/10/30 08:40:40;;;;;;;0.22;0.22;;;;;;;10.64;100.00;99909.91;5114986;28;20027;-51
2023/10/30 08:43:05;;;;;;;0.30;0.30;;;;;;;10.70;100.00;99898.81;5116003;28;20036;-51
2023/10/30 08:45:30;;;;;;;0.20;0.20;;;;;;;10.81;100.00;99889.50;5115288;28;20015;-50
2023/10/30 08:47:56;;;;;;;0.20;0.20;;;;;;;10.85;100.00;99893.84;5115637;28;20107;-49
2023/10/30 08:50:21;;;;;;;0.20;0.20;;;;;;;10.93;100.00;99895.69;5115792;28;20394;-50
2023/10/30 08:52:46;;;;;;;0.20;0.20;;;;;;;11.03;100.00;99887.22;5114917;28;20122;-51
2023/10/30 08:55:12;;;;;;;0.20;0.20;;;;;;;11.11;100.00;99901.03;5116002;28;20016;-51
2023/10/30 08:57:37;;;;;;;0.20;0.20;;;;;;;11.20;100.00;99905.47;5115649;28;20101;-51
2023/10/30 09:00:07;;;;;;;0.20;0.20;;;;;;;11.30;100.00;99907.28;5114916;28;20494;-51
2023/10/30 09:02:33;;;;;;;0.20;0.20;;;;;;;11.47;100.00;99896.31;5115642;28;20482;-51
2023/10/30 09:04:58;;;;;;;0.20;0.20;;;;;;;11.54;100.00;99890.34;5115300;28;20073;-51
2023/10/30 09:07:24;;;;;;;0.20;0.20;;;;;;;11.57;100.00;99902.41;5114247;28;20020;-50
2023/10/30 09:09:49;;;;;;;0.10;0.10;;;;;;;11.56;100.00;99903.28;5114780;28;20535;-51
2023/10/30 09:12:14;;;;;;;0.20;0.20;;;;;;;11.60;100.00;99910.19;5115415;28;20031;-51
2023/10/30 09:14:40;;;;;;;0.20;0.20;;;;;;;11.65;100.00;99916.28;5114214;28;20488;-50
2023/10/30 09:17:08;;;;;;;0.20;0.20;;;;;;;11.64;100.00;99911.94;5115321;28;20115;-51
2023/10/30 09:19:34;;;;;;;0.20;0.20;;;;;;;11.64;100.00;99906.78;5115245;28;20020;-51
2023/10/30 09:21:59;;;;;;;0.20;0.20;;;;;;;11.68;100.00;99900.81;5114615;28;20030;-51
2023/10/30 09:24:26;;;;;;;0.20;0.20;;;;;;;11.72;100.00;99899.97;5115445;28;20028;-50
2023/10/30 09:26:51;;;;;;;0.17;0.17;;;;;;;11.76;100.00;99901.75;5115086;28;20096;-50
2023/10/30 09:29:17;;;;;;;0.20;0.20;;;;;;;11.74;100.00;99887.97;5114465;28;20466;-51
2023/10/30 09:31:43;;;;;;;0.17;0.17;;;;;;;11.76;100.00;99888.84;5114782;28;20027;-51
2023/10/30 09:34:08;;;;;;;0.20;0.20;;;;;;;11.73;100.00;99890.53;5114980;28;20405;-51
2023/10/30 09:36:33;;;;;;;0.20;0.20;;;;;;;11.76;100.00;99891.44;5114446;28;20073;-51
2023/10/30 09:38:59;;;;;;;0.20;0.20;;;;;;;11.84;100.00;99883.75;5114829;28;20031;-52
2023/10/30 09:41:27;;;;;;;0.20;0.20;;;;;;;11.88;100.00;99895.84;5114877;28;20111;-51
2023/10/30 09:43:53;;;;;;;0.20;0.20;;;;;;;11.93;100.00;99888.13;5113879;28;20019;-51
2023/10/30 09:46:25;;;;;;;0.20;0.20;;;;;;;11.97;100.00;99885.63;5114749;28;20428;-50
2023/10/30 09:48:52;;;;;;;0.10;0.10;;;;;;;11.98;100.00;99889.06;5113530;28;20020;-50
2023/10/30 09:51:19;;;;;;;;;;;;;;;12.12;100.00;99887.47;5115228;28;20056;-53
2023/10/30 09:53:46;;;;;;;0.20;0.20;;;;;;;12.02;100.00;99877.94;5114523;28;19912;-53
2023/10/30 09:56:13;;;;;;;0.20;0.20;;;;;;;12.01;100.00;99878.78;5113867;28;20783;-51
2023/10/30 09:58:38;;;;;;;0.17;0.17;;;;;;;12.05;100.00;99877.09;5114381;28;20034;-53
2023/10/30 10:01:04;;;;;;;0.20;0.20;;;;;;;12.06;100.00;99871.03;5114559;28;20028;-51
2023/10/30 10:03:29;;;;;;;0.20;0.20;;;;;;;12.09;100.00;99868.50;5113873;28;20027;-52
2023/10/30 10:05:55;;;;;;;0.20;0.20;;;;;;;12.08;100.00;99866.75;5114290;28;20035;-51
2023/10/30 10:08:21;;;;;;;0.20;0.20;;;;;;;12.12;100.00;99859.06;5114525;28;20149;-51
2023/10/30 10:10:54;;;;;;;0.20;0.20;;;;;;;12.15;100.00;99863.38;5113297;28;20035;-52
2023/10/30 10:13:20;;;;;;;0.20;0.20;;;;;;;12.14;100.00;99862.50;5114291;28;20080;-52
2023/10/30 10:15:45;;;;;;;0.20;0.20;;;;;;;12.15;100.00;99853.91;5113854;28;20110;-52
2023/10/30 10:18:24;;;;;;;0.10;0.10;;;;;;;12.20;100.00;99864.28;5113613;28;20026;-51
2023/10/30 10:21:00;;;;;;;0.20;0.20;;;;;;;12.19;100.00;99863.41;5113673;28;20028;-53
2023/10/30 10:23:30;;;;;;;0.20;0.20;;;;;;;12.26;100.00;99864.31;5114264;28;20120;-52
2023/10/30 10:25:56;;;;;;;0.20;0.20;;;;;;;12.31;100.00;99865.19;5112966;28;20023;-52
2023/10/30 10:28:25;;;;;;;0.15;0.15;;;;;;;12.38;100.00;99863.50;5114013;28;20051;-52
2023/10/30 10:30:53;;;;;;;0.20;0.20;;;;;;;12.38;100.00;99854.91;5113699;28;20047;-53
2023/10/30 10:33:20;;;;;;;0.30;0.30;;;;;;;12.38;100.00;99871.25;5113828;28;20019;-53
2023/10/30 10:35:47;;;;;;;0.20;0.20;;;;;;;12.42;100.00;99854.06;5113524;28;20534;-52
2023/10/30 10:38:16;;;;;;;0.20;0.20;;;;;;;12.48;100.00;99865.28;5113040;28;20020;-53
2023/10/30 10:40:43;;;;;;;0.10;0.10;;;;;;;12.55;100.00;99865.34;5113378;28;20391;-53
2023/10/30 10:43:09;;;;;;;0.15;0.15;;;;;;;12.57;100.00;99859.31;5113606;28;20039;-51
2023/10/30 10:45:36;;;;;;;0.20;0.20;;;;;;;12.57;100.00;99859.31;5112812;28;20522;-52
2023/10/30 10:48:01;;;;;;;0.17;0.17;;;;;;;12.59;100.00;99854.16;5113628;28;20360;-53
2023/10/30 10:50:27;;;;;;;0.10;0.10;;;;;;;12.58;100.00;99862.78;5113642;28;20020;-52
2023/10/30 10:52:53;;;;;;;0.20;0.20;;;;;;;12.56;100.00;99862.75;5112466;28;20026;-52
2023/10/30 10:55:23;;;;;;;0.17;0.17;;;;;;;12.52;100.00;99861.91;5113469;28;20183;-52
2023/10/30 10:57:58;;;;;;;0.20;0.20;;;;;;;12.50;100.00;99866.19;5113372;28;20012;-52
2023/10/30 11:00:29;;;;;;;0.20;0.20;;;;;;;12.49;100.00;99853.25;5112856;28;20032;-53
2023/10/30 11:03:01;;;;;;;0.17;0.17;;;;;;;12.52;100.00;99853.25;5113166;28;20015;-50
2023/10/30 11:05:29;;;;;;;0.10;0.10;;;;;;;12.54;100.00;99848.09;5113431;28;20030;-53
2023/10/30 11:08:07;;;;;;;;;;;;;;;12.66;100.00;99845.59;5112540;28;20019;-51
2023/10/30 11:10:38;;;;;;;0.10;0.10;;;;;;;12.63;100.00;99845.59;5113265;28;20364;-49
2023/10/30 11:13:25;;;;;;;0.20;0.20;;;;;;;12.71;100.00;99843.88;5113316;28;20095;-53
2023/10/30 11:16:02;;;;;;;0.20;0.20;;;;;;;12.76;100.00;99844.78;5112900;28;20038;-52
2023/10/30 11:18:27;;;;;;;0.20;0.20;;;;;;;12.83;100.00;99830.16;5113297;28;20020;-52
2023/10/30 11:21:12;;;;;;;0.10;0.10;;;;;;;12.91;100.00;99832.75;5112328;28;20150;-52
2023/10/30 11:23:44;;;;;;;0.20;0.20;;;;;;;12.96;100.00;99828.47;5113026;28;20024;-51
2023/10/30 11:26:10;;;;;;;0.20;0.20;;;;;;;13.00;100.00;99825.91;5113085;28;20467;-53